createdAt,value
2018-09-05T00:00:11.512Z,4.80
2018-09-05T00:02:40.262Z,4.50
2018-09-05T00:05:09.753Z,4.70
2018-09-05T00:07:38.458Z,4.62
2018-09-05T00:10:07.723Z,4.62
2018-09-05T00:12:36.402Z,4.17
2018-09-05T00:15:05.869Z,4.20
2018-09-05T00:17:34.619Z,4.53
2018-09-05T00:20:03.267Z,4.35
2018-09-05T00:22:32.056Z,4.40
2018-09-05T00:25:02.035Z,4.70
2018-09-05T00:27:30.664Z,4.53
2018-09-05T00:30:00.768Z,4.25
2018-09-05T00:32:29.301Z,4.50
2018-09-05T00:34:58.045Z,4.65
2018-09-05T00:37:26.659Z,4.60
2018-09-05T00:39:55.470Z,4.80
2018-09-05T00:42:24.001Z,4.65
2018-09-05T00:44:53.395Z,5.10
2018-09-05T00:47:22.140Z,4.92
2018-09-05T00:49:52.084Z,4.95
2018-09-05T00:52:20.715Z,4.78
2018-09-05T00:54:49.395Z,4.80
2018-09-05T00:57:17.912Z,4.62
2018-09-05T00:59:46.460Z,4.92
2018-09-05T01:02:15.571Z,4.62
2018-09-05T01:04:44.332Z,4.80
2018-09-05T01:07:24.375Z,5.00
2018-09-05T01:09:53.696Z,4.73
2018-09-05T01:12:23.286Z,4.85
2018-09-05T01:14:53.044Z,4.87
2018-09-05T01:17:23.760Z,4.92
2018-09-05T01:19:53.710Z,5.00
2018-09-05T01:22:23.137Z,5.05
2018-09-05T01:24:52.019Z,5.17
2018-09-05T01:27:21.291Z,5.03
2018-09-05T01:29:50.648Z,4.58
2018-09-05T01:32:19.537Z,4.53
2018-09-05T01:34:48.429Z,4.97
2018-09-05T01:37:17.357Z,4.62
2018-09-05T01:39:46.195Z,5.10
2018-09-05T01:42:14.872Z,5.22
2018-09-05T01:44:45.280Z,5.28
2018-09-05T01:47:15.009Z,4.83
2018-09-05T01:49:43.632Z,5.40
2018-09-05T01:52:12.765Z,5.72
2018-09-05T01:54:41.392Z,5.47
2018-09-05T01:57:09.980Z,5.22
2018-09-05T01:59:39.055Z,5.40
2018-09-05T02:02:07.864Z,5.62
2018-09-05T02:04:36.692Z,5.62
2018-09-05T02:07:05.891Z,5.37
2018-09-05T02:09:34.617Z,5.37
2018-09-05T02:12:03.359Z,5.22
2018-09-05T02:14:32.113Z,5.65
2018-09-05T02:17:00.738Z,5.45
2018-09-05T02:19:29.495Z,4.97
2018-09-05T02:21:58.320Z,5.63
2018-09-05T02:24:28.096Z,5.22
2018-09-05T02:26:57.972Z,5.55
2018-09-05T02:29:29.964Z,5.65
2018-09-05T02:31:58.859Z,5.67
2018-09-05T02:34:27.528Z,5.65
2018-09-05T02:36:57.347Z,5.20
2018-09-05T02:39:25.984Z,5.17
2018-09-05T02:41:55.122Z,5.78
2018-09-05T02:44:24.500Z,5.42
2018-09-05T02:46:54.029Z,5.70
2018-09-05T02:49:23.576Z,5.83
2018-09-05T02:51:53.030Z,6.07
2018-09-05T02:54:22.474Z,5.92
2018-09-05T02:56:51.990Z,5.20
2018-09-05T02:59:21.210Z,5.53
2018-09-05T03:01:49.781Z,5.73
2018-09-05T03:04:18.385Z,5.85
2018-09-05T03:06:47.912Z,5.45
2018-09-05T03:09:16.820Z,5.60
2018-09-05T03:11:45.408Z,5.90
2018-09-05T03:14:14.628Z,5.75
2018-09-05T03:16:44.282Z,5.72
2018-09-05T03:19:12.826Z,5.78
2018-09-05T03:21:41.398Z,6.05
2018-09-05T03:24:10.675Z,6.70
2018-09-05T03:26:39.913Z,6.30
2018-09-05T03:29:08.516Z,7.03
2018-09-05T03:31:37.719Z,7.22
2018-09-05T03:34:06.415Z,6.70
2018-09-05T03:36:35.046Z,6.08
2018-09-05T03:39:06.184Z,6.47
2018-09-05T03:41:34.714Z,6.20
2018-09-05T03:44:03.616Z,6.30
2018-09-05T03:46:32.456Z,5.92
2018-09-05T03:49:01.320Z,5.83
2018-09-05T03:51:30.127Z,6.00
2018-09-05T03:54:05.400Z,6.30
2018-09-05T03:56:34.135Z,5.80
2018-09-05T03:59:03.645Z,6.40
2018-09-05T04:01:32.658Z,6.20
2018-09-05T04:04:01.992Z,5.95
2018-09-05T04:06:30.761Z,6.28
2018-09-05T04:09:00.300Z,6.30
2018-09-05T04:11:30.165Z,6.03
2018-09-05T04:14:01.099Z,5.85
2018-09-05T04:16:29.956Z,6.30
2018-09-05T04:18:58.705Z,5.90
2018-09-05T04:21:27.465Z,6.22
2018-09-05T04:23:57.068Z,5.92
2018-09-05T04:26:27.203Z,6.03
2018-09-05T04:28:56.445Z,6.17
2018-09-05T04:31:26.722Z,6.15
2018-09-05T04:33:55.394Z,6.27
2018-09-05T04:36:24.248Z,6.60
2018-09-05T04:38:54.499Z,6.40
2018-09-05T04:41:23.357Z,6.07
2018-09-05T04:43:52.663Z,6.40
2018-09-05T04:46:21.519Z,6.65
2018-09-05T04:48:50.335Z,6.22
2018-09-05T04:51:19.426Z,6.85
2018-09-05T04:53:48.138Z,6.57
2018-09-05T04:56:17.708Z,6.37
2018-09-05T04:58:49.591Z,7.27
2018-09-05T05:01:18.684Z,6.40
2018-09-05T05:03:48.307Z,6.07
2018-09-05T05:06:17.702Z,6.93
2018-09-05T05:08:46.608Z,6.70
2018-09-05T05:11:16.211Z,7.00
2018-09-05T05:13:45.202Z,6.90
2018-09-05T05:16:15.500Z,7.00
2018-09-05T05:18:44.352Z,7.37
2018-09-05T05:21:13.672Z,6.90
2018-09-05T05:23:46.181Z,6.75
2018-09-05T05:26:15.035Z,7.00
2018-09-05T05:28:43.720Z,7.30
2018-09-05T05:31:12.286Z,7.23
2018-09-05T05:33:41.546Z,7.24
2018-09-05T05:36:10.524Z,7.65
2018-09-05T05:38:39.767Z,8.38
2018-09-05T05:41:08.726Z,7.10
2018-09-05T05:43:38.228Z,6.97
2018-09-05T05:46:09.395Z,7.03
2018-09-05T05:48:39.095Z,8.18
2018-09-05T05:51:08.605Z,8.17
2018-09-05T05:53:37.569Z,7.17
2018-09-05T05:56:07.589Z,7.87
2018-09-05T05:58:37.141Z,7.93
2018-09-05T06:01:06.031Z,6.90
2018-09-05T06:03:35.097Z,8.23
2018-09-05T06:06:04.025Z,7.60
2018-09-05T06:08:33.518Z,7.80
2018-09-05T06:11:03.228Z,8.13
2018-09-05T06:13:32.411Z,7.80
2018-09-05T06:16:02.310Z,8.48
2018-09-05T06:18:31.292Z,8.40
2018-09-05T06:21:01.018Z,8.28
2018-09-05T06:23:30.334Z,8.83
2018-09-05T06:25:59.869Z,8.83
2018-09-05T06:28:29.517Z,8.80
2018-09-05T06:31:00.424Z,7.90
2018-09-05T06:33:30.468Z,8.70
2018-09-05T06:35:59.371Z,8.53
2018-09-05T06:38:28.320Z,8.90
2018-09-05T06:40:57.273Z,8.68
2018-09-05T06:43:26.338Z,8.65
2018-09-05T06:45:56.002Z,8.30
2018-09-05T06:48:25.250Z,8.85
2018-09-05T06:51:11.583Z,9.18
2018-09-05T06:53:40.345Z,8.73
2018-09-05T06:56:09.535Z,9.83
2018-09-05T06:58:40.607Z,9.53
2018-09-05T07:01:09.228Z,8.68
2018-09-05T07:03:37.961Z,10.25
2018-09-05T07:06:06.586Z,10.60
2018-09-05T07:08:36.239Z,11.83
2018-09-05T07:11:04.954Z,11.45
2018-09-05T07:13:34.544Z,12.28
2018-09-05T07:16:04.283Z,13.10
2018-09-05T07:18:34.124Z,13.43
2018-09-05T07:21:06.400Z,13.28
2018-09-05T07:23:34.597Z,12.40
2018-09-05T07:26:04.720Z,12.47
2018-09-05T07:28:33.763Z,14.90
2018-09-05T07:31:04.058Z,12.25
2018-09-05T07:33:33.564Z,13.40
2018-09-05T07:36:02.979Z,13.35
2018-09-05T07:38:32.041Z,13.70
2018-09-05T07:41:00.986Z,13.18
2018-09-05T07:43:31.197Z,13.28
2018-09-05T07:46:00.025Z,14.60
2018-09-05T07:48:28.838Z,14.73
2018-09-05T07:50:58.143Z,13.08
2018-09-05T07:53:27.710Z,14.58
2018-09-05T07:55:56.395Z,16.55
2018-09-05T07:58:26.178Z,20.08
2018-09-05T08:00:55.236Z,22.70
2018-09-05T08:03:23.974Z,21.85
2018-09-05T08:05:54.959Z,22.32
2018-09-05T08:08:24.279Z,20.75
2018-09-05T08:10:54.100Z,17.80
2018-09-05T08:13:22.968Z,17.12
2018-09-05T08:15:51.574Z,17.65
2018-09-05T08:18:20.276Z,18.73
2018-09-05T08:20:49.052Z,20.32
2018-09-05T08:23:17.652Z,18.75
2018-09-05T08:25:46.330Z,17.90
2018-09-05T08:28:15.002Z,18.45
2018-09-05T08:30:54.230Z,18.40
2018-09-05T08:33:22.956Z,18.20
2018-09-05T08:35:52.352Z,16.93
2018-09-05T08:38:20.624Z,18.10
2018-09-05T08:40:50.876Z,17.17
2018-09-05T08:43:19.627Z,16.70
2018-09-05T08:45:49.261Z,18.90
2018-09-05T08:48:17.803Z,17.02
2018-09-05T08:50:47.236Z,17.70
2018-09-05T08:53:15.935Z,16.07
2018-09-05T08:55:45.202Z,16.90
2018-09-05T08:58:13.790Z,15.95
2018-09-05T09:00:43.807Z,15.76
2018-09-05T09:03:12.461Z,15.00
2018-09-05T09:05:41.095Z,15.23
2018-09-05T09:08:09.902Z,15.75
2018-09-05T09:10:39.564Z,15.35
2018-09-05T09:13:08.436Z,14.80
2018-09-05T09:15:37.844Z,15.38
2018-09-05T09:18:07.035Z,14.75
2018-09-05T09:20:35.700Z,13.98
2018-09-05T09:23:05.735Z,14.43
2018-09-05T09:25:36.851Z,13.75
2018-09-05T09:28:06.193Z,16.55
2018-09-05T09:30:35.940Z,14.60
2018-09-05T09:33:05.121Z,13.65
2018-09-05T09:35:35.121Z,12.55
2018-09-05T09:38:04.796Z,10.85
2018-09-05T09:40:34.134Z,9.98
2018-09-05T09:43:03.527Z,8.95
2018-09-05T09:45:32.229Z,11.28
2018-09-05T09:48:01.239Z,10.82
2018-09-05T09:50:30.638Z,10.85
2018-09-05T09:52:59.559Z,10.00
2018-09-05T09:55:28.221Z,8.95
2018-09-05T09:57:57.096Z,7.95
2018-09-05T10:00:31.449Z,8.28
2018-09-05T10:03:05.504Z,6.87
2018-09-05T10:05:40.526Z,6.50
2018-09-05T10:08:14.299Z,6.60
2018-09-05T10:10:48.372Z,6.10
2018-09-05T10:13:22.038Z,6.37
2018-09-05T10:15:55.851Z,6.10
2018-09-05T10:18:26.705Z,5.97
2018-09-05T10:20:56.067Z,5.70
2018-09-05T10:23:24.992Z,6.08
2018-09-05T10:25:53.752Z,5.40
2018-09-05T10:28:22.512Z,5.80
2018-09-05T10:30:52.933Z,5.70
2018-09-05T10:33:21.470Z,5.28
2018-09-05T10:35:50.621Z,5.42
2018-09-05T10:38:19.253Z,5.60
2018-09-05T10:40:48.027Z,5.78
2018-09-05T10:43:16.662Z,4.90
2018-09-05T10:45:46.364Z,5.30
2018-09-05T10:48:15.331Z,4.90
2018-09-05T10:50:44.186Z,5.20
2018-09-05T10:53:13.071Z,5.17
2018-09-05T10:55:42.926Z,4.65
2018-09-05T10:58:12.423Z,4.60
2018-09-05T11:00:41.318Z,4.30
2018-09-05T11:03:10.396Z,4.78
2018-09-05T11:05:39.006Z,4.60
2018-09-05T11:08:08.158Z,4.70
2018-09-05T11:10:37.079Z,5.25
2018-09-05T11:13:05.833Z,4.60
2018-09-05T11:15:34.460Z,4.78
2018-09-05T11:18:03.138Z,4.60
2018-09-05T11:20:32.059Z,4.55
2018-09-05T11:23:00.763Z,4.15
2018-09-05T11:25:29.805Z,4.00
2018-09-05T11:27:59.407Z,4.60
2018-09-05T11:30:28.616Z,4.80
2018-09-05T11:32:57.476Z,4.28
2018-09-05T11:35:27.103Z,3.80
2018-09-05T11:37:55.998Z,3.90
2018-09-05T11:40:24.839Z,4.37
2018-09-05T11:42:54.366Z,4.10
2018-09-05T11:45:23.099Z,4.15
2018-09-05T11:47:51.966Z,3.95
2018-09-05T11:50:20.621Z,3.85
2018-09-05T11:52:49.723Z,3.83
2018-09-05T11:55:18.614Z,4.10
2018-09-05T11:57:47.347Z,4.43
2018-09-05T12:00:16.546Z,3.90
2018-09-05T12:02:45.221Z,3.92
2018-09-05T12:05:13.968Z,4.05
2018-09-05T12:07:43.603Z,3.90
2018-09-05T12:10:12.388Z,4.10
2018-09-05T12:12:41.367Z,3.98
2018-09-05T12:15:11.277Z,4.00
2018-09-05T12:17:40.608Z,3.83
2018-09-05T12:20:10.246Z,3.83
2018-09-05T12:22:38.997Z,4.12
2018-09-05T12:25:07.654Z,3.85
2018-09-05T12:27:37.695Z,3.95
2018-09-05T12:30:06.495Z,3.95
2018-09-05T12:32:35.188Z,3.80
2018-09-05T12:35:06.383Z,3.72
2018-09-05T12:37:35.148Z,3.72
2018-09-05T12:40:05.437Z,3.72
2018-09-05T12:42:34.816Z,3.98
2018-09-05T12:45:04.023Z,3.90
2018-09-05T12:47:32.695Z,3.85
2018-09-05T12:50:01.478Z,3.90
2018-09-05T12:52:31.859Z,3.98
2018-09-05T12:55:00.686Z,3.90
2018-09-05T12:57:30.324Z,4.10
2018-09-05T12:59:58.958Z,3.72
2018-09-05T13:02:27.600Z,3.75
2018-09-05T13:04:56.371Z,3.80
2018-09-05T13:07:24.973Z,4.00
2018-09-05T13:09:53.616Z,3.60
2018-09-05T13:12:23.435Z,4.05
2018-09-05T13:14:52.344Z,4.22
2018-09-05T13:17:20.979Z,4.00
2018-09-05T13:19:49.921Z,3.87
2018-09-05T13:22:18.607Z,4.30
2018-09-05T13:24:48.053Z,3.95
2018-09-05T13:27:16.810Z,3.80
2018-09-05T13:29:45.474Z,3.87
2018-09-05T13:32:14.079Z,4.30
2018-09-05T13:34:42.741Z,4.10
2018-09-05T13:37:12.368Z,3.90
2018-09-05T13:39:41.177Z,4.67
2018-09-05T13:42:09.885Z,4.28
2018-09-05T13:44:38.478Z,4.10
2018-09-05T13:47:07.190Z,3.98
2018-09-05T13:49:36.007Z,4.00
2018-09-05T13:52:06.593Z,3.80
2018-09-05T13:54:36.796Z,3.90
2018-09-05T13:57:06.333Z,4.20
2018-09-05T13:59:35.046Z,3.67
2018-09-05T14:02:04.928Z,3.95
2018-09-05T14:04:33.460Z,4.08
2018-09-05T14:07:02.863Z,3.80
2018-09-05T14:09:31.655Z,3.85
2018-09-05T14:12:00.412Z,3.95
2018-09-05T14:14:29.378Z,3.98
2018-09-05T14:16:58.320Z,4.12
2018-09-05T14:19:27.165Z,3.85
2018-09-05T14:21:56.105Z,4.30
2018-09-05T14:24:25.579Z,4.30
2018-09-05T14:26:54.476Z,4.00
2018-09-05T14:29:23.318Z,4.62
2018-09-05T14:31:52.553Z,4.10
2018-09-05T14:34:21.320Z,3.70
2018-09-05T14:36:50.211Z,4.00
2018-09-05T14:39:20.718Z,4.17
2018-09-05T14:41:50.788Z,4.03
2018-09-05T14:44:26.100Z,4.28
2018-09-05T14:46:55.094Z,4.15
2018-09-05T14:49:23.906Z,3.80
2018-09-05T14:51:52.927Z,3.98
2018-09-05T14:54:21.733Z,4.50
2018-09-05T14:56:51.180Z,4.33
2018-09-05T14:59:19.749Z,3.85
2018-09-05T15:01:48.499Z,4.53
2018-09-05T15:04:17.308Z,4.37
2018-09-05T15:06:46.092Z,4.67
2018-09-05T15:09:15.112Z,4.60
2018-09-05T15:11:45.827Z,4.55
2018-09-05T15:14:14.840Z,3.98
2018-09-05T15:16:43.809Z,3.92
2018-09-05T15:22:01.856Z,4.10
2018-09-05T15:24:31.674Z,4.28
2018-09-05T15:27:00.318Z,4.50
2018-09-05T15:29:29.903Z,4.20
2018-09-05T15:31:58.975Z,4.60
2018-09-05T15:34:29.014Z,4.50
2018-09-05T15:36:59.036Z,4.35
2018-09-05T15:39:27.768Z,4.20
2018-09-05T15:41:57.247Z,4.10
2018-09-05T15:44:27.064Z,4.12
2018-09-05T15:46:57.970Z,4.37
2018-09-05T15:49:26.604Z,4.30
2018-09-05T15:51:56.525Z,4.58
2018-09-05T15:54:27.558Z,4.50
2018-09-05T15:56:56.258Z,6.00
2018-09-05T15:59:24.979Z,8.50
2018-09-05T16:01:55.052Z,7.60
2018-09-05T16:04:25.000Z,9.28
2018-09-05T16:06:54.746Z,7.08
2018-09-05T16:09:23.817Z,7.60
2018-09-05T16:11:52.804Z,5.62
2018-09-05T16:17:30.330Z,5.30
2018-09-05T16:20:03.313Z,5.37
2018-09-05T16:22:35.045Z,5.10
2018-09-05T16:25:03.964Z,4.95
2018-09-05T16:27:38.377Z,4.97
2018-09-05T16:30:07.686Z,4.75
2018-09-05T16:32:39.555Z,4.62
2018-09-05T16:35:08.380Z,4.65
2018-09-05T16:37:36.967Z,4.50
2018-09-05T16:40:05.749Z,4.90
2018-09-05T16:42:34.448Z,4.58
2018-09-05T16:45:03.439Z,4.53
2018-09-05T16:47:32.141Z,4.47
2018-09-05T16:50:00.893Z,4.87
2018-09-05T16:52:30.713Z,4.47
2018-09-05T16:54:59.781Z,4.60
2018-09-05T16:57:29.841Z,4.58
2018-09-05T16:59:58.525Z,4.37
2018-09-05T17:02:27.222Z,4.55
2018-09-05T17:04:57.282Z,4.45
2018-09-05T17:07:25.980Z,4.60
2018-09-05T17:09:55.682Z,4.53
2018-09-05T17:12:24.700Z,4.78
2018-09-05T17:14:53.694Z,4.65
2018-09-05T17:17:23.885Z,4.87
2018-09-05T17:19:52.575Z,4.62
2018-09-05T17:22:22.276Z,4.80
2018-09-05T17:24:51.127Z,4.42
2018-09-05T17:27:20.736Z,4.83
2018-09-05T17:29:49.927Z,5.53
2018-09-05T17:32:18.631Z,4.42
2018-09-05T17:34:55.103Z,4.78
2018-09-05T17:37:24.193Z,4.47
2018-09-05T17:39:53.493Z,4.87
2018-09-05T17:42:23.100Z,4.97
2018-09-05T17:44:52.172Z,4.65
2018-09-05T17:47:22.551Z,4.83
2018-09-05T17:49:52.259Z,4.97
2018-09-05T17:52:20.993Z,4.70
2018-09-05T17:54:50.426Z,4.67
2018-09-05T17:57:21.215Z,5.00
2018-09-05T17:59:50.084Z,4.40
2018-09-05T18:02:18.733Z,5.03
2018-09-05T18:04:47.853Z,5.00
2018-09-05T18:07:18.147Z,4.83
2018-09-05T18:23:13.043Z,4.58
2018-09-05T18:25:42.624Z,4.90
2018-09-05T18:28:11.646Z,5.12
2018-09-05T18:30:41.618Z,5.10
2018-09-05T18:33:12.288Z,5.28
2018-09-05T18:35:41.380Z,5.35
2018-09-05T18:38:10.956Z,5.20
2018-09-05T18:40:40.610Z,5.50
2018-09-05T18:43:09.772Z,5.50
2018-09-05T18:45:39.005Z,4.92
2018-09-05T18:48:09.213Z,5.17
2018-09-05T18:50:39.839Z,5.40
2018-09-05T18:53:13.605Z,5.12
2018-09-05T18:55:44.600Z,5.45
2018-09-05T18:58:13.791Z,5.72
2018-09-05T19:00:42.931Z,5.40
2018-09-05T19:03:13.357Z,5.20
2018-09-05T19:05:42.157Z,5.37
2018-09-05T19:08:10.709Z,5.47
2018-09-05T19:10:40.203Z,5.45
2018-09-05T19:13:08.912Z,5.58
2018-09-05T19:15:38.493Z,5.80
2018-09-05T19:18:08.275Z,5.92
2018-09-05T19:20:37.211Z,6.20
2018-09-05T19:23:07.770Z,5.80
2018-09-05T19:25:37.324Z,5.55
2018-09-05T19:28:07.545Z,6.03
2018-09-05T19:30:37.029Z,6.10
2018-09-05T19:33:06.525Z,6.10
2018-09-05T19:35:37.117Z,6.22
2018-09-05T19:38:07.201Z,5.90
2018-09-05T19:40:36.208Z,5.95
2018-09-05T19:43:04.989Z,5.90
2018-09-05T19:45:33.606Z,5.65
2018-09-05T19:48:03.527Z,5.80
2018-09-05T19:50:32.269Z,5.65
2018-09-05T19:53:01.837Z,5.78
2018-09-05T19:55:30.980Z,5.92
2018-09-05T19:57:59.905Z,5.70
2018-09-05T20:00:29.960Z,5.97
2018-09-05T20:02:58.461Z,5.60
2018-09-05T20:05:28.694Z,6.30
2018-09-05T20:08:01.751Z,6.10
2018-09-05T20:10:30.490Z,6.42
2018-09-05T20:12:59.321Z,6.22
2018-09-05T20:15:28.094Z,6.30
2018-09-05T20:17:57.029Z,6.45
2018-09-05T20:20:25.986Z,6.05
2018-09-05T20:22:58.869Z,6.50
2018-09-05T20:25:36.873Z,6.47
2018-09-05T20:28:12.374Z,5.83
2018-09-05T20:30:40.988Z,5.40
2018-09-05T20:33:09.573Z,6.20
2018-09-05T20:35:38.105Z,5.70
2018-09-05T20:38:06.811Z,6.35
2018-09-05T20:40:36.419Z,6.20
2018-09-05T20:43:05.640Z,5.60
2018-09-05T20:45:34.388Z,6.03
2018-09-05T20:48:03.513Z,5.65
2018-09-05T20:50:32.630Z,6.15
2018-09-05T20:53:01.969Z,6.00
2018-09-05T20:55:30.656Z,6.20
2018-09-05T20:57:59.526Z,6.03
2018-09-05T21:00:29.381Z,5.90
2018-09-05T21:02:58.231Z,6.12
2018-09-05T21:05:27.692Z,6.08
2018-09-05T21:07:56.295Z,6.15
2018-09-05T21:10:25.602Z,6.05
2018-09-05T21:12:55.171Z,6.22
2018-09-05T21:15:23.947Z,6.47
2018-09-05T21:17:52.655Z,6.00
2018-09-05T21:20:21.914Z,5.70
2018-09-05T21:22:50.616Z,6.42
2018-09-05T21:25:19.406Z,6.28
2018-09-05T21:27:49.170Z,6.40
2018-09-05T21:30:18.341Z,5.97
2018-09-05T21:32:46.981Z,6.60
2018-09-05T21:35:15.667Z,6.50
2018-09-05T21:37:44.549Z,6.62
2018-09-05T21:40:14.067Z,6.55
2018-09-05T21:42:43.699Z,6.45
2018-09-05T21:45:12.537Z,6.92
2018-09-05T21:47:41.284Z,6.78
2018-09-05T21:50:09.941Z,6.50
2018-09-05T21:52:38.641Z,6.20
2018-09-05T21:55:09.269Z,5.92
2018-09-05T21:57:38.399Z,6.47
2018-09-05T22:00:09.055Z,6.60
2018-09-05T22:02:37.982Z,6.83
2018-09-05T22:05:06.877Z,6.28
2018-09-05T22:07:35.667Z,6.50
2018-09-05T22:10:04.309Z,6.28
2018-09-05T22:12:33.067Z,6.10
2018-09-05T22:15:02.558Z,6.50
2018-09-05T22:17:31.230Z,6.60
2018-09-05T22:20:00.116Z,6.78
2018-09-05T22:22:28.947Z,6.12
2018-09-05T22:24:58.226Z,7.20
2018-09-05T22:27:27.524Z,6.67
2018-09-05T22:29:57.647Z,6.90
2018-09-05T22:32:26.683Z,6.62
2018-09-05T22:34:55.410Z,7.03
2018-09-05T22:37:25.311Z,6.95
2018-09-05T22:39:54.473Z,6.92
2018-09-05T22:42:23.117Z,7.10
2018-09-05T22:45:02.980Z,7.00
2018-09-05T22:47:43.564Z,7.50
2018-09-05T22:51:25.328Z,7.40
2018-09-05T22:54:11.094Z,7.58
2018-09-05T22:59:04.277Z,7.22
2018-09-05T23:01:57.796Z,7.20
2018-09-05T23:04:44.214Z,7.70
2018-09-05T23:07:24.098Z,7.75
2018-09-05T23:10:03.892Z,7.40
2018-09-05T23:12:44.257Z,7.50
2018-09-05T23:16:26.704Z,7.45
2018-09-05T23:19:07.272Z,7.45
2018-09-05T23:21:37.214Z,7.60
2018-09-05T23:24:08.132Z,7.47
2018-09-05T23:26:37.665Z,7.58
2018-09-05T23:29:06.364Z,7.40
2018-09-05T23:31:35.192Z,7.60
2018-09-05T23:34:04.804Z,7.12
2018-09-05T23:36:33.408Z,7.45
2018-09-05T23:39:02.657Z,7.80
2018-09-05T23:41:31.701Z,7.97
2018-09-05T23:44:00.355Z,7.97
2018-09-05T23:46:29.361Z,7.53
2018-09-05T23:48:59.060Z,7.50
2018-09-05T23:51:28.038Z,7.60
2018-09-05T23:53:57.027Z,7.72
2018-09-05T23:56:26.847Z,7.80
2018-09-05T23:58:55.921Z,8.28
